Time;durP1;ratioP1;P1;durP2;ratioP2;P2;SDS_P1;SDS_P2;PMS_P1;PMS_P2;Temp;Humidity;BMP_temperature;BMP_pressure;BME280_temperature;BME280_humidity;BME280_pressure;Samples;Min_cycle;Max_cycle;Signal;HPM_P1;HPM_P2
2023/07/30 00:02:17;;;;;;;3.38;1.52;;;22.60;99.90;;;;;;5074299;28;20546;-74
2023/07/30 00:04:44;;;;;;;5.30;1.65;;;22.40;99.90;;;;;;5070220;28;20606;-74
2023/07/30 00:07:11;;;;;;;3.03;1.60;;;22.00;99.90;;;;;;5072850;28;20046;-75
2023/07/30 00:09:37;;;;;;;6.18;1.85;;;21.50;99.90;;;;;;5070357;28;20027;-75
2023/07/30 00:12:03;;;;;;;4.32;1.95;;;21.20;99.90;;;;;;5074024;28;20104;-76
2023/07/30 00:14:29;;;;;;;2.85;1.90;;;21.00;99.90;;;;;;5070051;28;20009;-75
2023/07/30 00:16:54;;;;;;;4.82;1.80;;;20.80;99.90;;;;;;5074336;28;20035;-75
2023/07/30 00:19:20;;;;;;;2.38;1.33;;;20.70;99.90;;;;;;5070482;28;20031;-75
2023/07/30 00:21:46;;;;;;;2.28;1.58;;;20.70;99.90;;;;;;5063030;28;20025;-74
2023/07/30 00:24:15;;;;;;;4.63;1.83;;;20.70;99.90;;;;;;5064558;28;20044;-75
2023/07/30 00:26:41;;;;;;;3.35;1.77;;;20.70;99.90;;;;;;5061111;28;20039;-74
2023/07/30 00:29:06;;;;;;;3.97;1.77;;;20.80;99.90;;;;;;5068194;28;20025;-74
2023/07/30 00:31:32;;;;;;;2.17;1.45;;;20.80;99.90;;;;;;5071765;28;20052;-74
2023/07/30 00:33:58;;;;;;;2.42;1.50;;;20.90;99.90;;;;;;5067522;28;20100;-75
2023/07/30 00:36:23;;;;;;;2.75;1.45;;;20.90;99.90;;;;;;5070640;28;20086;-74
2023/07/30 00:38:49;;;;;;;4.18;1.50;;;21.00;99.90;;;;;;5067730;28;20025;-74
2023/07/30 00:41:15;;;;;;;3.13;1.58;;;21.10;99.90;;;;;;5069909;28;20036;-74
2023/07/30 00:43:40;;;;;;;2.17;1.85;;;21.10;99.90;;;;;;5054056;28;20037;-73
2023/07/30 00:46:06;;;;;;;5.03;2.63;;;21.10;99.90;;;;;;5070740;28;20072;-74
2023/07/30 00:48:32;;;;;;;4.03;2.08;;;21.20;99.90;;;;;;5065491;28;20033;-75
2023/07/30 00:50:59;;;;;;;1.67;1.40;;;21.30;99.90;;;;;;5070366;28;20099;-74
2023/07/30 00:53:27;;;;;;;2.15;1.48;;;21.30;99.90;;;;;;5067755;28;20104;-72
2023/07/30 00:55:53;;;;;;;2.33;1.45;;;21.20;99.90;;;;;;5069161;28;20025;-74
2023/07/30 00:58:21;;;;;;;3.75;1.77;;;21.30;99.90;;;;;;5067348;28;20055;-73
2023/07/30 01:00:47;;;;;;;3.90;1.60;;;21.30;99.90;;;;;;5070043;28;20052;-74
2023/07/30 01:03:13;;;;;;;2.70;1.60;;;21.30;99.90;;;;;;5067600;28;20043;-74
2023/07/30 01:05:39;;;;;;;3.10;1.50;;;21.30;99.90;;;;;;5069404;28;20499;-72
2023/07/30 01:08:04;;;;;;;3.33;1.50;;;21.30;99.90;;;;;;5066912;28;20037;-74
2023/07/30 01:10:31;;;;;;;2.22;1.33;;;21.30;99.90;;;;;;5070038;28;20021;-73
2023/07/30 01:13:00;;;;;;;2.92;1.50;;;21.30;99.90;;;;;;5067426;28;20481;-74
2023/07/30 01:15:26;;;;;;;3.03;2.13;;;21.30;99.90;;;;;;5069970;28;20024;-73
2023/07/30 01:17:52;;;;;;;2.05;1.55;;;21.40;99.90;;;;;;5068087;28;20021;-73
2023/07/30 01:20:17;;;;;;;3.15;1.67;;;21.40;99.90;;;;;;5066170;28;20014;-73
2023/07/30 01:22:43;;;;;;;2.78;1.30;;;21.30;99.90;;;;;;5064621;28;20485;-72
2023/07/30 01:25:09;;;;;;;2.22;1.95;;;21.30;99.90;;;;;;5069210;28;20028;-72
2023/07/30 01:27:41;;;;;;;3.47;1.67;;;21.30;99.90;;;;;;5067371;28;20032;-74
2023/07/30 01:30:15;;;;;;;3.13;1.50;;;21.30;99.90;;;;;;5069926;28;20400;-73
2023/07/30 01:32:41;;;;;;;2.95;1.58;;;21.20;99.90;;;;;;5069687;28;20016;-73
2023/07/30 01:35:08;;;;;;;2.53;1.73;;;21.30;99.90;;;;;;5068262;28;20098;-74
2023/07/30 01:37:35;;;;;;;4.25;1.90;;;21.20;99.90;;;;;;5069488;28;20020;-74
2023/07/30 01:40:01;;;;;;;4.07;1.58;;;21.20;99.90;;;;;;5067324;28;20034;-74
2023/07/30 01:42:30;;;;;;;1.80;1.58;;;21.20;99.90;;;;;;5068066;28;20062;-74
2023/07/30 01:44:56;;;;;;;3.80;1.52;;;21.20;99.90;;;;;;5066379;28;20033;-73
2023/07/30 01:47:22;;;;;;;2.53;1.27;;;21.20;99.90;;;;;;5069904;28;20032;-73
2023/07/30 01:49:47;;;;;;;3.63;1.67;;;21.20;99.90;;;;;;5067549;28;20033;-74
2023/07/30 01:52:13;;;;;;;2.92;1.77;;;21.20;99.90;;;;;;5069319;28;20489;-73
2023/07/30 01:54:39;;;;;;;2.15;1.48;;;21.10;99.90;;;;;;5067895;28;20024;-73
2023/07/30 01:57:04;;;;;;;2.70;1.58;;;21.10;99.90;;;;;;5068527;28;20443;-73
2023/07/30 01:59:30;;;;;;;2.67;1.58;;;21.10;99.90;;;;;;5068589;28;20021;-74
2023/07/30 02:01:56;;;;;;;2.80;1.75;;;21.10;99.90;;;;;;5070002;28;20454;-74
2023/07/30 02:04:21;;;;;;;3.83;1.83;;;21.00;99.90;;;;;;5056053;28;20399;-73
2023/07/30 02:06:47;;;;;;;3.28;1.48;;;21.00;99.90;;;;;;5068686;28;20476;-73
2023/07/30 02:09:12;;;;;;;3.22;1.77;;;21.00;99.90;;;;;;5068378;28;20439;-73
2023/07/30 02:11:38;;;;;;;2.13;1.50;;;21.00;99.90;;;;;;5069811;28;20545;-73
2023/07/30 02:14:04;;;;;;;3.13;1.73;;;20.90;99.90;;;;;;5068361;28;20017;-74
2023/07/30 02:16:29;;;;;;;3.67;1.70;;;20.90;99.90;;;;;;5069761;28;20052;-73
2023/07/30 02:18:55;;;;;;;2.75;1.85;;;20.90;99.90;;;;;;5066832;28;20037;-74
2023/07/30 02:21:20;;;;;;;2.38;1.67;;;20.90;99.90;;;;;;5061484;28;20063;-75
2023/07/30 02:23:46;;;;;;;4.20;1.80;;;20.90;99.90;;;;;;5067739;28;20056;-75
2023/07/30 02:26:12;;;;;;;2.95;1.65;;;20.80;99.90;;;;;;5068956;28;20028;-74
2023/07/30 02:28:37;;;;;;;4.15;1.67;;;20.80;99.90;;;;;;5067318;28;20382;-73
2023/07/30 02:31:03;;;;;;;2.78;1.60;;;20.80;99.90;;;;;;5068588;28;20056;-75
2023/07/30 02:33:28;;;;;;;2.10;1.50;;;20.70;99.90;;;;;;5067478;28;20029;-74
2023/07/30 02:35:54;;;;;;;2.35;1.52;;;20.70;99.90;;;;;;5068685;28;20031;-74
2023/07/30 02:38:20;;;;;;;2.10;1.15;;;20.70;99.90;;;;;;5066674;28;20047;-73
2023/07/30 02:40:45;;;;;;;4.45;1.70;;;20.80;99.90;;;;;;5056164;28;20020;-74
2023/07/30 02:43:11;;;;;;;3.05;1.73;;;20.70;99.90;;;;;;5066419;28;20094;-75
2023/07/30 02:45:38;;;;;;;4.43;1.63;;;20.70;99.90;;;;;;5069638;28;20028;-73
2023/07/30 02:48:04;;;;;;;4.20;1.45;;;20.70;99.90;;;;;;5068804;28;20025;-75
2023/07/30 02:50:29;;;;;;;2.80;1.70;;;20.70;99.90;;;;;;5069799;28;20024;-73
2023/07/30 02:52:55;;;;;;;2.03;1.30;;;20.70;99.90;;;;;;5071805;28;20388;-73
2023/07/30 02:55:21;;;;;;;4.43;1.70;;;20.70;99.90;;;;;;5073441;28;20033;-74
2023/07/30 02:57:46;;;;;;;2.28;1.65;;;20.70;99.90;;;;;;5072696;28;20075;-73
2023/07/30 03:00:13;;;;;;;3.58;1.90;;;20.60;99.90;;;;;;5073284;28;20021;-74
2023/07/30 03:02:40;;;;;;;1.50;1.35;;;20.60;99.90;;;;;;5072455;28;20020;-74
2023/07/30 03:05:06;;;;;;;2.35;1.67;;;20.60;99.90;;;;;;5073294;28;20023;-74
2023/07/30 03:07:32;;;;;;;3.63;2.10;;;20.60;99.90;;;;;;5072082;28;20470;-74
2023/07/30 03:09:58;;;;;;;3.20;1.90;;;20.60;99.90;;;;;;5071790;28;20032;-74
2023/07/30 03:12:23;;;;;;;3.00;1.60;;;20.60;99.90;;;;;;5071249;28;20021;-73
2023/07/30 03:14:49;;;;;;;3.80;1.65;;;20.60;99.90;;;;;;5071770;28;20025;-74
2023/07/30 03:17:15;;;;;;;5.82;1.70;;;20.60;99.90;;;;;;5071412;28;20464;-74
2023/07/30 03:19:40;;;;;;;2.97;1.50;;;20.60;99.90;;;;;;5072742;28;20392;-74
2023/07/30 03:22:06;;;;;;;3.65;1.50;;;20.60;99.90;;;;;;5061722;28;20029;-75
2023/07/30 03:24:31;;;;;;;2.35;1.67;;;20.60;99.90;;;;;;5071712;28;20571;-75
2023/07/30 03:26:57;;;;;;;3.63;1.90;;;20.60;99.90;;;;;;5060172;28;20049;-74
2023/07/30 03:29:23;;;;;;;3.00;1.52;;;20.60;99.90;;;;;;5068311;28;20025;-74
2023/07/30 03:31:48;;;;;;;4.78;1.52;;;20.60;99.90;;;;;;5070949;28;20458;-74
2023/07/30 03:34:14;;;;;;;3.22;1.60;;;20.50;99.90;;;;;;5071439;28;20076;-74
2023/07/30 03:36:40;;;;;;;3.95;1.77;;;20.60;99.90;;;;;;5070595;28;20513;-74
2023/07/30 03:39:06;;;;;;;3.53;1.70;;;20.50;99.90;;;;;;5066739;28;20025;-74
2023/07/30 03:41:31;;;;;;;2.85;1.80;;;20.50;99.90;;;;;;5066530;28;20083;-74
2023/07/30 03:43:57;;;;;;;2.70;1.60;;;20.60;99.90;;;;;;5070230;28;20021;-74
2023/07/30 03:46:22;;;;;;;5.03;1.60;;;20.60;99.90;;;;;;5068895;28;20029;-74
2023/07/30 03:48:48;;;;;;;4.05;1.48;;;20.60;99.90;;;;;;5068966;28;20545;-74
2023/07/30 03:51:14;;;;;;;3.00;1.48;;;20.50;99.90;;;;;;5070233;28;20492;-73
2023/07/30 03:53:39;;;;;;;5.72;2.08;;;20.50;99.90;;;;;;5070830;28;20051;-74
2023/07/30 03:56:05;;;;;;;2.97;1.60;;;20.50;99.90;;;;;;5069155;28;20013;-74
2023/07/30 03:58:31;;;;;;;3.22;1.40;;;20.50;99.90;;;;;;5070492;28;20053;-75
2023/07/30 04:00:56;;;;;;;2.75;1.42;;;20.50;99.90;;;;;;5070694;28;20060;-74
2023/07/30 04:03:22;;;;;;;4.13;1.45;;;20.50;99.90;;;;;;5068074;28;20115;-73
2023/07/30 04:05:48;;;;;;;6.22;1.98;;;20.40;99.90;;;;;;5069319;28;20025;-74
2023/07/30 04:08:13;;;;;;;5.85;1.67;;;20.40;99.90;;;;;;5069719;28;20029;-73
2023/07/30 04:10:39;;;;;;;3.40;1.60;;;20.40;99.90;;;;;;5069398;28;20020;-74
2023/07/30 04:13:07;;;;;;;4.65;1.70;;;20.40;99.90;;;;;;5069953;28;20071;-73
2023/07/30 04:15:33;;;;;;;3.88;1.63;;;20.40;99.90;;;;;;5070913;28;20469;-73
2023/07/30 04:17:59;;;;;;;5.80;1.50;;;20.40;99.90;;;;;;5070244;28;20046;-73
2023/07/30 04:20:25;;;;;;;3.20;1.65;;;20.30;99.90;;;;;;5065558;28;20029;-74
2023/07/30 04:22:51;;;;;;;2.70;1.67;;;20.30;99.90;;;;;;5068143;28;20101;-72
2023/07/30 04:25:16;;;;;;;4.13;1.83;;;20.30;99.90;;;;;;5070204;28;20029;-73
2023/07/30 04:27:42;;;;;;;3.60;1.70;;;20.30;99.90;;;;;;5069772;28;20028;-74
2023/07/30 04:30:08;;;;;;;4.60;1.88;;;20.20;99.90;;;;;;5068333;28;20178;-74
2023/07/30 04:32:34;;;;;;;3.63;1.88;;;20.20;99.90;;;;;;5068602;28;20016;-73
2023/07/30 04:35:02;;;;;;;3.85;1.80;;;20.10;99.90;;;;;;5069732;28;20477;-73
2023/07/30 04:37:28;;;;;;;3.17;1.60;;;20.10;99.90;;;;;;5069861;28;20013;-73
2023/07/30 04:39:53;;;;;;;4.38;1.60;;;20.10;99.90;;;;;;5069630;28;20503;-73
2023/07/30 04:42:19;;;;;;;3.55;1.52;;;20.10;99.90;;;;;;5069618;28;20028;-74
2023/07/30 04:44:44;;;;;;;2.63;1.48;;;20.10;99.90;;;;;;5068263;28;20037;-73
2023/07/30 04:47:10;;;;;;;3.25;1.90;;;20.20;99.90;;;;;;5069932;28;20020;-73
2023/07/30 04:49:37;;;;;;;5.53;1.77;;;20.10;99.90;;;;;;5068989;28;20459;-73
2023/07/30 04:52:03;;;;;;;8.27;2.13;;;20.10;99.90;;;;;;5070621;28;20063;-72
2023/07/30 04:54:29;;;;;;;6.03;1.73;;;20.10;99.90;;;;;;5068802;28;20048;-73
2023/07/30 04:56:54;;;;;;;7.60;1.77;;;20.00;99.90;;;;;;5070389;28;20021;-74
2023/07/30 04:59:20;;;;;;;6.03;2.05;;;20.00;99.90;;;;;;5068897;28;20040;-73
2023/07/30 05:01:46;;;;;;;11.68;2.40;;;20.00;99.90;;;;;;5070699;28;20028;-73
2023/07/30 05:04:11;;;;;;;4.70;1.90;;;20.00;99.90;;;;;;5070306;28;20036;-72
2023/07/30 05:06:37;;;;;;;2.63;1.80;;;20.00;99.90;;;;;;5070216;28;20086;-73
2023/07/30 05:09:03;;;;;;;5.55;2.92;;;20.00;99.90;;;;;;5070368;28;20107;-73
2023/07/30 05:11:28;;;;;;;5.40;2.17;;;20.00;99.90;;;;;;5071156;28;20051;-73
2023/07/30 05:13:54;;;;;;;8.02;2.08;;;20.10;99.90;;;;;;5070761;28;20505;-73
2023/07/30 05:16:20;;;;;;;4.82;1.70;;;20.10;99.90;;;;;;5070234;28;20080;-73
2023/07/30 05:18:45;;;;;;;5.75;1.80;;;20.10;99.90;;;;;;5071056;28;20029;-73
2023/07/30 05:21:11;;;;;;;5.85;1.83;;;20.10;99.90;;;;;;5062201;28;20016;-73
2023/07/30 05:23:37;;;;;;;4.95;1.90;;;20.10;99.90;;;;;;5069587;28;20489;-73
2023/07/30 05:26:02;;;;;;;5.50;2.28;;;20.10;99.90;;;;;;5067346;28;20508;-73
2023/07/30 05:28:28;;;;;;;3.65;1.63;;;20.10;99.90;;;;;;5069285;28;20028;-73
2023/07/30 05:30:53;;;;;;;4.68;1.80;;;20.10;99.90;;;;;;5068226;28;20154;-72
2023/07/30 05:33:19;;;;;;;2.25;1.50;;;20.10;99.90;;;;;;5069848;28;20085;-73
2023/07/30 05:35:45;;;;;;;3.53;1.60;;;20.10;99.90;;;;;;5067618;28;20108;-73
2023/07/30 05:38:11;;;;;;;3.92;2.05;;;20.10;99.90;;;;;;5069602;28;20066;-73
2023/07/30 05:40:36;;;;;;;3.53;1.60;;;20.10;99.90;;;;;;5057756;28;20020;-73
2023/07/30 05:43:02;;;;;;;5.47;1.80;;;20.10;99.90;;;;;;5069652;28;20051;-73
2023/07/30 05:45:28;;;;;;;6.90;2.05;;;20.10;99.90;;;;;;5066599;28;20592;-73
2023/07/30 05:47:54;;;;;;;3.88;2.10;;;20.10;99.90;;;;;;5069355;28;20078;-73
2023/07/30 05:50:20;;;;;;;3.85;1.70;;;20.10;99.90;;;;;;5067721;28;20024;-73
2023/07/30 05:52:45;;;;;;;9.75;1.85;;;20.20;99.90;;;;;;5069571;28;20100;-72
2023/07/30 05:55:11;;;;;;;2.80;1.60;;;20.30;99.90;;;;;;5059783;28;20053;-73
2023/07/30 05:57:37;;;;;;;5.90;1.88;;;20.30;99.90;;;;;;5059536;28;20505;-73
2023/07/30 06:00:03;;;;;;;3.60;1.70;;;20.40;99.90;;;;;;5068295;28;20020;-73
2023/07/30 06:02:29;;;;;;;4.13;1.63;;;20.40;99.90;;;;;;5069127;28;20069;-73
2023/07/30 06:04:54;;;;;;;6.72;2.38;;;20.40;99.90;;;;;;5068530;28;20024;-73
2023/07/30 06:07:20;;;;;;;7.13;2.40;;;20.30;99.90;;;;;;5070368;28;20029;-73
2023/07/30 06:09:45;;;;;;;5.45;1.98;;;20.30;99.90;;;;;;5068240;28;20036;-74
2023/07/30 06:12:11;;;;;;;6.32;1.88;;;20.20;99.90;;;;;;5070469;28;20024;-74
2023/07/30 06:14:37;;;;;;;7.90;2.05;;;20.20;99.90;;;;;;5068972;28;20021;-73
2023/07/30 06:17:03;;;;;;;4.07;1.55;;;20.20;99.90;;;;;;5071034;28;20021;-74
2023/07/30 06:19:28;;;;;;;5.63;2.15;;;20.30;99.90;;;;;;5069042;28;20024;-74
2023/07/30 06:21:54;;;;;;;1.98;1.50;;;20.30;99.90;;;;;;5062759;28;20035;-74
2023/07/30 06:24:20;;;;;;;22.55;4.03;;;20.20;99.90;;;;;;5067425;28;20100;-73
2023/07/30 06:26:45;;;;;;;3.95;1.80;;;20.20;99.90;;;;;;5070077;28;20024;-74
2023/07/30 06:29:11;;;;;;;4.13;1.90;;;20.20;99.90;;;;;;5067848;28;20021;-75
2023/07/30 06:31:37;;;;;;;3.58;1.65;;;20.20;99.90;;;;;;5069198;28;20031;-74
2023/07/30 06:34:02;;;;;;;4.90;1.83;;;20.20;99.90;;;;;;5067820;28;20027;-74
2023/07/30 06:36:28;;;;;;;3.28;1.60;;;20.20;99.90;;;;;;5071006;28;20024;-72
2023/07/30 06:38:54;;;;;;;4.13;2.08;;;20.20;99.90;;;;;;5069775;28;20048;-74
2023/07/30 06:41:21;;;;;;;2.78;1.67;;;20.10;99.90;;;;;;5071893;28;20024;-73
2023/07/30 06:43:46;;;;;;;3.97;1.95;;;20.20;99.90;;;;;;5070081;28;20151;-74
2023/07/30 06:46:12;;;;;;;3.92;1.85;;;20.20;99.90;;;;;;5072089;28;20051;-72
2023/07/30 06:48:38;;;;;;;4.95;1.90;;;20.20;99.90;;;;;;5070219;28;20434;-72
2023/07/30 06:51:06;;;;;;;3.72;1.80;;;20.20;99.90;;;;;;5071821;28;20028;-73
2023/07/30 06:53:32;;;;;;;6.25;2.45;;;20.20;99.90;;;;;;5070465;28;20016;-73
2023/07/30 06:55:57;;;;;;;5.10;3.55;;;20.20;99.90;;;;;;5071717;28;20021;-73
2023/07/30 06:58:23;;;;;;;6.38;2.28;;;20.20;99.90;;;;;;5063430;28;20028;-72
2023/07/30 07:00:49;;;;;;;3.38;1.92;;;20.20;99.90;;;;;;5066366;28;20124;-73
2023/07/30 07:03:14;;;;;;;5.40;2.70;;;20.20;99.90;;;;;;5057158;28;20065;-72
2023/07/30 07:05:40;;;;;;;10.05;3.90;;;20.10;99.90;;;;;;5064729;28;20052;-72
2023/07/30 07:08:05;;;;;;;4.65;2.20;;;20.20;99.90;;;;;;5061580;28;20349;-72
2023/07/30 07:10:31;;;;;;;4.45;2.47;;;20.30;99.90;;;;;;5068659;28;20396;-73
2023/07/30 07:12:57;;;;;;;6.88;3.83;;;20.40;99.90;;;;;;5063377;28;20017;-73
2023/07/30 07:15:22;;;;;;;8.02;2.58;;;20.50;99.90;;;;;;5064457;28;20021;-72
2023/07/30 07:17:48;;;;;;;2.83;1.50;;;20.50;99.90;;;;;;5057887;28;20045;-73
2023/07/30 07:20:14;;;;;;;4.88;2.35;;;20.70;99.90;;;;;;5058116;28;20059;-73
2023/07/30 07:22:39;;;;;;;16.80;8.20;;;21.00;99.90;;;;;;5048914;28;20049;-73
2023/07/30 07:25:05;;;;;;;12.02;6.78;;;21.20;99.90;;;;;;5061046;28;20096;-73
2023/07/30 07:27:31;;;;;;;17.42;7.63;;;21.40;99.90;;;;;;5058287;28;20040;-73
2023/07/30 07:29:56;;;;;;;7.93;2.67;;;21.60;99.90;;;;;;5059666;28;20111;-73
2023/07/30 07:32:22;;;;;;;3.92;1.95;;;21.60;99.90;;;;;;5067890;28;20091;-73
2023/07/30 07:34:49;;;;;;;13.52;7.05;;;21.60;99.90;;;;;;5071458;28;20040;-73
2023/07/30 07:37:16;;;;;;;15.10;8.07;;;21.60;99.90;;;;;;5071730;28;20024;-73
2023/07/30 07:39:43;;;;;;;10.15;5.25;;;21.70;99.90;;;;;;5075240;28;20024;-73
2023/07/30 07:42:09;;;;;;;8.88;4.53;;;21.70;99.90;;;;;;5063055;28;20013;-73
2023/07/30 07:44:35;;;;;;;15.70;7.97;;;21.70;99.90;;;;;;5058677;28;20025;-73
2023/07/30 07:47:00;;;;;;;6.53;3.15;;;21.80;99.90;;;;;;5065393;28;20021;-73
2023/07/30 07:49:26;;;;;;;17.50;8.07;;;21.80;99.90;;;;;;5077567;28;20054;-74
2023/07/30 07:51:52;;;;;;;5.88;3.92;;;21.80;99.90;;;;;;5077962;28;20059;-73
2023/07/30 07:54:17;;;;;;;13.77;6.72;;;21.90;99.90;;;;;;5076949;28;20024;-73
2023/07/30 07:56:43;;;;;;;8.48;4.55;;;21.90;99.90;;;;;;5077408;28;20017;-74
2023/07/30 07:59:09;;;;;;;18.52;9.45;;;22.00;99.90;;;;;;5077467;28;20035;-73
2023/07/30 08:01:34;;;;;;;8.43;5.55;;;22.00;99.90;;;;;;5077447;28;20036;-72
2023/07/30 08:04:00;;;;;;;5.70;2.35;;;22.20;99.90;;;;;;5076912;28;20024;-73
2023/07/30 08:06:26;;;;;;;4.43;2.00;;;22.00;99.90;;;;;;5070027;28;20054;-72
2023/07/30 08:08:51;;;;;;;10.50;5.53;;;21.80;99.90;;;;;;5072919;28;20032;-73
2023/07/30 08:11:17;;;;;;;6.32;3.38;;;21.80;99.90;;;;;;5069080;28;20027;-72
2023/07/30 08:13:42;;;;;;;5.65;2.75;;;21.70;99.90;;;;;;5072183;28;20020;-72
2023/07/30 08:16:08;;;;;;;12.02;4.97;;;21.60;99.90;;;;;;5067498;28;20020;-73
2023/07/30 08:18:34;;;;;;;23.35;13.05;;;21.50;99.90;;;;;;5072798;28;20532;-72
2023/07/30 08:21:03;;;;;;;16.30;7.63;;;21.60;99.90;;;;;;5060564;28;20018;-72
2023/07/30 08:23:28;;;;;;;9.30;5.20;;;21.70;99.90;;;;;;5074717;28;20051;-72
2023/07/30 08:25:54;;;;;;;17.10;10.20;;;21.70;99.90;;;;;;5073456;28;20477;-73
2023/07/30 08:28:20;;;;;;;13.40;7.32;;;21.90;99.90;;;;;;5069142;28;20048;-72
2023/07/30 08:30:46;;;;;;;4.60;2.30;;;21.90;99.90;;;;;;5068030;28;20019;-72
2023/07/30 08:33:11;;;;;;;25.65;13.90;;;22.00;99.90;;;;;;5073650;28;20025;-72
2023/07/30 08:35:37;;;;;;;10.70;5.55;;;21.90;99.90;;;;;;5072343;28;20174;-72
2023/07/30 08:38:02;;;;;;;25.80;15.38;;;22.00;99.90;;;;;;5073826;28;20024;-73
2023/07/30 08:40:28;;;;;;;6.90;3.75;;;21.90;99.90;;;;;;5069061;28;20021;-73
2023/07/30 08:42:54;;;;;;;37.05;20.60;;;22.00;99.90;;;;;;5069474;28;20032;-72
2023/07/30 08:45:20;;;;;;;8.40;5.15;;;22.00;99.90;;;;;;5067002;28;20105;-72
2023/07/30 08:47:47;;;;;;;7.93;3.90;;;22.20;99.90;;;;;;5071604;28;20028;-72
2023/07/30 08:50:13;;;;;;;27.27;15.32;;;22.40;99.90;;;;;;5066565;28;20029;-72
2023/07/30 08:52:40;;;;;;;298.08;176.02;;;22.70;99.90;;;;;;5071253;28;20055;-72
2023/07/30 08:55:07;;;;;;;3.97;1.83;;;23.00;99.90;;;;;;5067339;28;20017;-72
2023/07/30 08:57:33;;;;;;;5.45;1.63;;;22.90;99.90;;;;;;5061203;28;20555;-72
2023/07/30 09:00:10;;;;;;;4.68;1.73;;;22.80;99.90;;;;;;5044413;28;20500;-72
2023/07/30 09:02:44;;;;;;;5.53;1.90;;;22.60;99.90;;;;;;5056937;28;20549;-75
2023/07/30 09:05:11;;;;;;;66.05;40.28;;;22.40;99.90;;;;;;5057234;28;20108;-73
2023/07/30 09:07:37;;;;;;;10.98;3.65;;;22.50;99.90;;;;;;5056738;28;20025;-72
2023/07/30 09:10:03;;;;;;;4.38;1.60;;;22.80;99.90;;;;;;5056682;28;20082;-74
2023/07/30 09:12:32;;;;;;;4.93;1.75;;;22.70;99.90;;;;;;5066196;28;20028;-72
2023/07/30 09:14:58;;;;;;;25.13;11.02;;;22.60;99.90;;;;;;5065675;28;20508;-72
2023/07/30 09:17:25;;;;;;;4.78;2.30;;;22.80;99.90;;;;;;5059612;28;20060;-72
2023/07/30 09:19:52;;;;;;;5.75;1.92;;;23.00;99.90;;;;;;5058739;28;20017;-72
2023/07/30 09:22:24;;;;;;;6.53;3.33;;;23.10;99.90;;;;;;5054108;28;20514;-73
2023/07/30 09:24:50;;;;;;;3.17;1.67;;;23.10;99.90;;;;;;5064985;28;20025;-70
2023/07/30 09:27:25;;;;;;;3.58;1.63;;;23.20;99.90;;;;;;5062192;28;20116;-73
2023/07/30 09:29:52;;;;;;;4.50;1.70;;;23.10;99.90;;;;;;5059130;28;20037;-73
2023/07/30 09:32:18;;;;;;;28.80;15.30;;;23.00;99.90;;;;;;5057186;28;20565;-72
2023/07/30 09:34:48;;;;;;;7.63;3.08;;;23.00;99.90;;;;;;5057778;28;20065;-72
2023/07/30 09:37:14;;;;;;;4.25;1.60;;;23.30;99.90;;;;;;5056835;28;20119;-73
2023/07/30 09:39:40;;;;;;;4.10;1.80;;;23.20;99.90;;;;;;5042727;28;20494;-74
2023/07/30 09:42:06;;;;;;;5.63;2.53;;;23.10;99.90;;;;;;5048147;28;20101;-72
2023/07/30 09:44:35;;;;;;;7.28;3.05;;;23.00;99.90;;;;;;5058808;28;20029;-73
2023/07/30 09:47:05;;;;;;;7.00;2.22;;;23.00;99.90;;;;;;5056103;28;20568;-73
2023/07/30 09:49:34;;;;;;;7.07;3.97;;;23.10;99.90;;;;;;5053554;28;20036;-72
2023/07/30 09:52:00;;;;;;;7.57;2.50;;;23.30;99.90;;;;;;5054869;28;20317;-73
2023/07/30 09:54:27;;;;;;;4.80;1.70;;;23.50;99.90;;;;;;5036842;28;20021;-73
2023/07/30 09:56:52;;;;;;;13.20;6.28;;;23.80;99.90;;;;;;5051149;28;20392;-72
2023/07/30 09:59:18;;;;;;;9.68;4.57;;;24.00;99.90;;;;;;5051980;28;20028;-73
2023/07/30 10:01:49;;;;;;;19.88;11.55;;;24.20;99.90;;;;;;5054086;28;20033;-73
2023/07/30 10:04:18;;;;;;;12.68;5.30;;;24.40;99.90;;;;;;5057172;28;20025;-73
2023/07/30 10:06:56;;;;;;;7.60;2.05;;;24.40;99.90;;;;;;5056176;28;20075;-73
2023/07/30 10:09:25;;;;;;;5.55;3.17;;;24.30;99.90;;;;;;5049861;28;20021;-73
2023/07/30 10:11:52;;;;;;;27.42;15.75;;;24.30;99.90;;;;;;5045022;28;20039;-73
2023/07/30 10:14:21;;;;;;;17.85;10.25;;;24.40;99.90;;;;;;5053180;28;20064;-73
2023/07/30 10:16:55;;;;;;;27.85;15.57;;;24.60;99.90;;;;;;5054715;28;20079;-75
2023/07/30 10:19:25;;;;;;;16.90;8.95;;;24.60;99.90;;;;;;5055456;28;20084;-72
2023/07/30 10:21:51;;;;;;;11.10;7.10;;;24.30;99.90;;;;;;5057325;28;20767;-73
2023/07/30 10:24:16;;;;;;;26.88;15.82;;;24.20;99.90;;;;;;5041072;28;21599;-73
2023/07/30 10:26:42;;;;;;;15.45;9.05;;;24.40;99.90;;;;;;5055290;28;20107;-73
2023/07/30 10:29:19;;;;;;;21.88;10.73;;;24.50;99.90;;;;;;5057088;28;20028;-73
2023/07/30 10:31:49;;;;;;;12.35;4.22;;;24.80;99.90;;;;;;5050737;28;20020;-73
2023/07/30 10:34:14;;;;;;;9.65;5.07;;;24.90;99.90;;;;;;5066963;28;20071;-73
2023/07/30 10:36:49;;;;;;;23.42;14.30;;;25.00;99.90;;;;;;5067502;28;20032;-73
2023/07/30 10:39:16;;;;;;;33.40;17.67;;;25.10;99.90;;;;;;5069267;28;20033;-73
2023/07/30 10:41:48;;;;;;;21.50;11.20;;;25.30;99.90;;;;;;5067815;28;20037;-73
2023/07/30 10:44:24;;;;;;;11.27;5.28;;;25.40;99.90;;;;;;5062773;28;20040;-74
2023/07/30 10:46:50;;;;;;;34.78;20.13;;;25.60;99.90;;;;;;5059432;28;20068;-73
2023/07/30 10:49:16;;;;;;;6.72;3.17;;;25.70;99.90;;;;;;5060209;28;20515;-74
2023/07/30 10:51:42;;;;;;;12.68;6.32;;;25.40;99.90;;;;;;5047038;28;20021;-74
2023/07/30 10:54:11;;;;;;;11.27;4.70;;;25.20;99.90;;;;;;5057744;28;20028;-73
2023/07/30 10:56:37;;;;;;;45.55;25.45;;;25.30;99.90;;;;;;5060110;28;20025;-74
2023/07/30 10:59:07;;;;;;;32.05;18.35;;;25.40;99.90;;;;;;5065164;28;20029;-73
2023/07/30 11:01:44;;;;;;;31.07;17.97;;;25.30;99.90;;;;;;5060277;28;20054;-73
2023/07/30 11:04:13;;;;;;;6.22;2.92;;;25.60;99.90;;;;;;5046323;28;20292;-74
2023/07/30 11:06:39;;;;;;;18.67;10.45;;;25.30;99.90;;;;;;5061565;28;20033;-73
2023/07/30 11:09:05;;;;;;;21.67;11.95;;;25.00;99.90;;;;;;5062984;28;20507;-73
2023/07/30 11:11:31;;;;;;;40.13;22.05;;;25.30;99.90;;;;;;5060041;28;20032;-73
2023/07/30 11:13:59;;;;;;;28.63;16.60;;;25.30;99.90;;;;;;5065812;28;20063;-74
2023/07/30 11:16:24;;;;;;;8.73;3.00;;;25.50;99.90;;;;;;5065421;28;20021;-75
2023/07/30 11:18:50;;;;;;;7.72;3.60;;;25.70;99.90;;;;;;5073709;28;20553;-75
2023/07/30 11:21:18;;;;;;;21.00;12.93;;;25.40;99.90;;;;;;5062878;28;20029;-74
2023/07/30 11:23:45;;;;;;;63.13;38.40;;;25.40;99.90;;;;;;5064606;28;20513;-74
2023/07/30 11:26:16;;;;;;;34.35;18.15;;;25.40;99.90;;;;;;5067473;28;20365;-74
2023/07/30 11:28:43;;;;;;;116.80;69.00;;;25.60;99.90;;;;;;5067995;28;20039;-75
2023/07/30 11:31:09;;;;;;;11.65;5.57;;;26.00;99.90;;;;;;5072167;28;20020;-74
2023/07/30 11:33:37;;;;;;;32.25;18.88;;;26.40;99.90;;;;;;5070077;28;20032;-74
2023/07/30 11:36:03;;;;;;;27.58;16.38;;;26.50;99.90;;;;;;5069814;28;20048;-74
2023/07/30 11:38:31;;;;;;;73.82;44.72;;;26.30;99.90;;;;;;5066528;28;20558;-74
2023/07/30 11:40:57;;;;;;;61.25;31.55;;;26.50;99.90;;;;;;5067781;28;20041;-75
2023/07/30 11:43:23;;;;;;;10.63;6.38;;;26.50;99.90;;;;;;5066277;28;20029;-75
2023/07/30 11:46:05;;;;;;;62.80;38.08;;;26.50;99.90;;;;;;5066894;28;20024;-76
2023/07/30 11:48:31;;;;;;;10.43;5.00;;;26.30;99.90;;;;;;5064867;28;20123;-75
2023/07/30 11:50:56;;;;;;;23.85;12.98;;;26.00;99.90;;;;;;5071435;28;20048;-77
2023/07/30 11:53:22;;;;;;;22.55;11.00;;;26.40;99.90;;;;;;5075603;28;20373;-74
2023/07/30 11:55:48;;;;;;;19.77;9.68;;;26.30;99.90;;;;;;5076407;28;20043;-73
2023/07/30 11:58:13;;;;;;;21.30;9.77;;;26.20;99.90;;;;;;5074605;28;20064;-76
2023/07/30 12:00:41;;;;;;;7.95;2.72;;;26.30;99.90;;;;;;5076769;28;20025;-74
2023/07/30 12:03:11;;;;;;;17.10;5.68;;;26.10;99.90;;;;;;5074431;28;20055;-76
2023/07/30 12:05:38;;;;;;;9.95;5.28;;;25.90;99.90;;;;;;5074190;28;20024;-74
2023/07/30 12:08:07;;;;;;;42.05;23.60;;;26.20;99.90;;;;;;5075618;28;20039;-74
2023/07/30 12:10:47;;;;;;;9.48;4.63;;;26.10;99.90;;;;;;5075373;28;20059;-75
2023/07/30 12:13:17;;;;;;;7.70;3.67;;;26.10;99.90;;;;;;5054906;28;20052;-74
2023/07/30 12:15:53;;;;;;;12.43;8.07;;;26.10;99.90;;;;;;5074081;28;20660;-76
2023/07/30 12:18:20;;;;;;;12.60;6.13;;;26.00;99.90;;;;;;5075039;28;20028;-74
2023/07/30 12:20:46;;;;;;;7.70;4.18;;;26.10;99.90;;;;;;5070517;28;20021;-76
2023/07/30 12:23:12;;;;;;;9.25;4.10;;;26.20;99.90;;;;;;5074508;28;20060;-75
2023/07/30 12:25:38;;;;;;;5.13;2.35;;;25.80;99.90;;;;;;5074207;28;20078;-74
2023/07/30 12:28:04;;;;;;;9.18;4.60;;;25.40;99.90;;;;;;5074593;28;20103;-75
2023/07/30 12:30:30;;;;;;;22.48;13.38;;;25.30;99.90;;;;;;5071420;28;20031;-74
2023/07/30 12:32:56;;;;;;;10.05;5.20;;;25.60;99.90;;;;;;5075400;28;20115;-74
2023/07/30 12:35:22;;;;;;;9.55;3.92;;;26.20;99.90;;;;;;5069137;28;20465;-75
2023/07/30 12:37:48;;;;;;;5.25;2.17;;;26.40;99.90;;;;;;5065618;28;20048;-75
2023/07/30 12:40:13;;;;;;;13.88;6.32;;;26.20;99.90;;;;;;5073653;28;20032;-74